Time;durP1;ratioP1;P1;durP2;ratioP2;P2;SDS_P1;SDS_P2;PMS_P1;PMS_P2;Temp;Humidity;BMP_temperature;BMP_pressure;BME280_temperature;BME280_humidity;BME280_pressure;Samples;Min_cycle;Max_cycle;Signal;HPM_P1;HPM_P2
2023/10/31 00:02:16;;;;;;;0.87;0.87;;;;;;;;;;4934364;29;20631;-65
2023/10/31 00:04:45;;;;;;;1.67;0.83;;;;;;;;;;4935117;29;20616;-65
2023/10/31 00:07:13;;;;;;;0.80;0.80;;;;;;;;;;4935155;29;21117;-63
2023/10/31 00:09:42;;;;;;;1.00;0.90;;;;;;;;;;4935822;29;20613;-65
2023/10/31 00:12:11;;;;;;;3.73;1.57;;;;;;;;;;4935337;29;20613;-64
2023/10/31 00:14:40;;;;;;;0.70;0.70;;;;;;;;;;4934097;29;20628;-66
2023/10/31 00:17:08;;;;;;;1.10;0.80;;;;;;;;;;4934427;29;21005;-65
2023/10/31 00:19:37;;;;;;;2.67;0.90;;;;;;;;;;4934365;29;20664;-65
2023/10/31 00:22:06;;;;;;;3.27;0.90;;;;;;;;;;4935235;29;20620;-65
2023/10/31 00:24:34;;;;;;;2.10;1.17;;;;;;;;;;4934419;29;20621;-65
2023/10/31 00:27:03;;;;;;;0.80;0.80;;;;;;;;;;4935079;29;20623;-65
2023/10/31 00:29:32;;;;;;;2.80;0.80;;;;;;;;;;4935187;29;20602;-65
2023/10/31 00:32:00;;;;;;;0.70;0.70;;;;;;;;;;4934529;29;21009;-62
2023/10/31 00:34:28;;;;;;;3.53;1.10;;;;;;;;;;4934736;29;20605;-65
2023/10/31 00:36:56;;;;;;;1.57;0.80;;;;;;;;;;4933173;29;20691;-66
2023/10/31 00:39:25;;;;;;;0.90;0.80;;;;;;;;;;4933830;29;20660;-65
2023/10/31 00:41:53;;;;;;;1.10;0.90;;;;;;;;;;4933795;29;20616;-65
2023/10/31 00:44:22;;;;;;;4.55;1.10;;;;;;;;;;4934006;29;20664;-65
2023/10/31 00:46:51;;;;;;;3.15;1.23;;;;;;;;;;4934592;29;20200;-65
2023/10/31 00:49:19;;;;;;;1.50;1.08;;;;;;;;;;4934220;29;20212;-65
2023/10/31 00:51:47;;;;;;;6.85;1.30;;;;;;;;;;4934638;29;20710;-65
2023/10/31 00:54:15;;;;;;;1.98;1.40;;;;;;;;;;4934969;29;20215;-65
2023/10/31 00:56:43;;;;;;;3.17;1.23;;;;;;;;;;4934873;29;20215;-65
2023/10/31 00:59:12;;;;;;;1.00;1.00;;;;;;;;;;4934385;29;20287;-65
2023/10/31 01:01:41;;;;;;;1.30;1.20;;;;;;;;;;4934063;29;20971;-65
2023/10/31 01:04:10;;;;;;;1.98;1.20;;;;;;;;;;4932494;29;20216;-66
2023/10/31 01:06:42;;;;;;;1.63;1.52;;;;;;;;;;4934039;29;20209;-65
2023/10/31 01:09:11;;;;;;;2.55;1.05;;;;;;;;;;4934348;29;20185;-65
2023/10/31 01:11:39;;;;;;;4.30;1.20;;;;;;;;;;4934595;29;20220;-65
2023/10/31 01:14:07;;;;;;;2.60;1.10;;;;;;;;;;4934405;29;20669;-66
2023/10/31 01:16:35;;;;;;;1.02;0.95;;;;;;;;;;4935083;29;20642;-65
2023/10/31 01:19:05;;;;;;;10.03;1.37;;;;;;;;;;4933071;29;20228;-65
2023/10/31 01:21:33;;;;;;;2.90;1.00;;;;;;;;;;4933820;29;20612;-65
2023/10/31 01:24:02;;;;;;;1.42;1.33;;;;;;;;;;4933056;29;20204;-65
2023/10/31 01:26:30;;;;;;;2.70;1.17;;;;;;;;;;4920828;29;20651;-65
2023/10/31 01:28:59;;;;;;;3.80;1.17;;;;;;;;;;4915009;29;20236;-65
2023/10/31 01:31:27;;;;;;;2.33;1.20;;;;;;;;;;4915527;29;20674;-65
2023/10/31 01:33:55;;;;;;;2.50;1.20;;;;;;;;;;4924571;29;20213;-65
2023/10/31 01:36:27;;;;;;;1.75;1.20;;;;;;;;;;4934521;29;20616;-65
2023/10/31 01:38:55;;;;;;;4.43;1.37;;;;;;;;;;4933566;29;20240;-65
2023/10/31 01:41:24;;;;;;;0.88;0.88;;;;;;;;;;4933864;29;20591;-65
2023/10/31 01:43:52;;;;;;;2.08;1.15;;;;;;;;;;4934251;29;20224;-65
2023/10/31 01:46:20;;;;;;;5.13;0.85;;;;;;;;;;4935673;29;20230;-65
2023/10/31 01:48:48;;;;;;;0.70;0.70;;;;;;;;;;4938126;29;20208;-65
2023/10/31 01:51:17;;;;;;;5.13;1.03;;;;;;;;;;4937610;29;20212;-65
2023/10/31 01:53:46;;;;;;;4.20;0.80;;;;;;;;;;4937472;29;21213;-65
2023/10/31 01:56:15;;;;;;;2.35;1.13;;;;;;;;;;4936725;29;20616;-65
2023/10/31 01:58:46;;;;;;;2.42;1.05;;;;;;;;;;4935808;29;20235;-65
2023/10/31 02:01:14;;;;;;;2.05;0.95;;;;;;;;;;4917678;29;20276;-66
2023/10/31 02:03:43;;;;;;;3.40;1.02;;;;;;;;;;4935166;29;20205;-65
2023/10/31 02:06:11;;;;;;;3.75;0.90;;;;;;;;;;4936361;29;20251;-65
2023/10/31 02:08:39;;;;;;;1.88;0.90;;;;;;;;;;4936167;29;20208;-65
2023/10/31 02:11:10;;;;;;;0.98;0.80;;;;;;;;;;4935570;29;20223;-65
2023/10/31 02:13:38;;;;;;;1.52;0.98;;;;;;;;;;4937452;29;20211;-65
2023/10/31 02:16:06;;;;;;;1.00;0.85;;;;;;;;;;4936879;29;20209;-65
2023/10/31 02:18:36;;;;;;;1.30;1.00;;;;;;;;;;4937387;29;20225;-65
2023/10/31 02:21:05;;;;;;;1.73;1.10;;;;;;;;;;4918693;29;20560;-65
2023/10/31 02:23:35;;;;;;;1.40;0.95;;;;;;;;;;4928046;29;20212;-65
2023/10/31 02:26:04;;;;;;;0.70;0.70;;;;;;;;;;4937683;29;20275;-65
2023/10/31 02:28:32;;;;;;;1.70;0.73;;;;;;;;;;4937822;29;20219;-65
2023/10/31 02:31:00;;;;;;;5.45;1.35;;;;;;;;;;4937004;29;20219;-65
2023/10/31 02:33:29;;;;;;;0.98;0.90;;;;;;;;;;4937648;29;20208;-65
2023/10/31 02:35:57;;;;;;;1.02;0.80;;;;;;;;;;4937367;29;20219;-65
2023/10/31 02:38:26;;;;;;;0.88;0.88;;;;;;;;;;4936066;29;20294;-65
2023/10/31 02:40:55;;;;;;;2.00;0.90;;;;;;;;;;4937180;29;20687;-65
2023/10/31 02:43:24;;;;;;;3.20;0.75;;;;;;;;;;4937035;29;20618;-65
2023/10/31 02:45:52;;;;;;;0.82;0.82;;;;;;;;;;4935547;29;20209;-65
2023/10/31 02:48:20;;;;;;;1.30;0.80;;;;;;;;;;4937039;29;20218;-65
2023/10/31 02:50:48;;;;;;;0.80;0.80;;;;;;;;;;4937149;29;20208;-65
2023/10/31 02:53:16;;;;;;;1.85;0.77;;;;;;;;;;4936199;29;20212;-66
2023/10/31 02:55:45;;;;;;;2.05;0.85;;;;;;;;;;4933418;29;20205;-65
2023/10/31 02:58:17;;;;;;;2.25;0.70;;;;;;;;;;4936751;29;20200;-65
2023/10/31 03:00:45;;;;;;;1.00;0.90;;;;;;;;;;4936406;29;20238;-65
2023/10/31 03:03:13;;;;;;;0.95;0.95;;;;;;;;;;4935963;29;20258;-66
2023/10/31 03:05:41;;;;;;;1.38;1.27;;;;;;;;;;4935631;29;20211;-65
2023/10/31 03:08:10;;;;;;;4.10;2.70;;;;;;;;;;4935908;29;20247;-65
2023/10/31 03:10:39;;;;;;;8.52;6.55;;;;;;;;;;4936629;29;20208;-65
2023/10/31 03:13:07;;;;;;;27.90;16.80;;;;;;;;;;4934252;29;20739;-65
2023/10/31 03:15:37;;;;;;;7.15;1.50;;;;;;;;;;4937037;29;20208;-65
2023/10/31 03:18:05;;;;;;;3.17;2.45;;;;;;;;;;4936510;29;20213;-65
2023/10/31 03:20:33;;;;;;;2.30;1.00;;;;;;;;;;4935621;29;20235;-65
2023/10/31 03:23:02;;;;;;;1.65;0.90;;;;;;;;;;4936154;29;20228;-65
2023/10/31 03:25:30;;;;;;;1.20;1.05;;;;;;;;;;4936329;29;20213;-65
2023/10/31 03:27:58;;;;;;;1.77;1.38;;;;;;;;;;4935769;29;20212;-65
2023/10/31 03:30:26;;;;;;;2.63;2.20;;;;;;;;;;4937035;29;20209;-65
2023/10/31 03:32:56;;;;;;;3.25;3.03;;;;;;;;;;4935168;29;20215;-65
2023/10/31 03:35:24;;;;;;;1.98;1.50;;;;;;;;;;4936446;29;20214;-65
2023/10/31 03:37:52;;;;;;;1.73;1.40;;;;;;;;;;4935331;29;20248;-65
2023/10/31 03:40:20;;;;;;;2.15;1.27;;;;;;;;;;4936025;29;20232;-65
2023/10/31 03:42:49;;;;;;;1.52;1.42;;;;;;;;;;4935025;29;20201;-64
2023/10/31 03:45:17;;;;;;;2.35;1.00;;;;;;;;;;4927264;29;20209;-65
2023/10/31 03:47:45;;;;;;;1.33;1.30;;;;;;;;;;4916822;29;20217;-65
2023/10/31 03:50:15;;;;;;;0.80;0.80;;;;;;;;;;4917156;29;20201;-65
2023/10/31 03:52:44;;;;;;;1.40;1.30;;;;;;;;;;4917573;29;20209;-64
2023/10/31 03:55:12;;;;;;;1.40;1.10;;;;;;;;;;4936363;29;20209;-65
2023/10/31 03:57:40;;;;;;;1.65;0.90;;;;;;;;;;4935290;29;20212;-65
2023/10/31 04:00:09;;;;;;;1.88;1.02;;;;;;;;;;4935683;29;20224;-65
2023/10/31 04:02:41;;;;;;;1.40;1.30;;;;;;;;;;4934483;29;20197;-65
2023/10/31 04:05:10;;;;;;;2.15;1.90;;;;;;;;;;4933549;29;20617;-65
2023/10/31 04:07:39;;;;;;;2.10;2.00;;;;;;;;;;4933253;29;20212;-65
2023/10/31 04:10:08;;;;;;;2.90;1.63;;;;;;;;;;4935511;29;20208;-65
2023/10/31 04:12:37;;;;;;;1.05;1.05;;;;;;;;;;4934777;29;20204;-65
2023/10/31 04:15:05;;;;;;;3.00;2.50;;;;;;;;;;4935895;29;20214;-64
2023/10/31 04:17:34;;;;;;;1.42;0.70;;;;;;;;;;4934546;29;20255;-64
2023/10/31 04:20:03;;;;;;;6.57;1.10;;;;;;;;;;4935916;29;20232;-65
2023/10/31 04:22:31;;;;;;;6.05;1.15;;;;;;;;;;4935096;29;20622;-65
2023/10/31 04:25:01;;;;;;;1.10;1.00;;;;;;;;;;4934248;29;20222;-64
2023/10/31 04:27:29;;;;;;;1.67;1.17;;;;;;;;;;4935220;29;20620;-64
2023/10/31 04:29:58;;;;;;;1.75;1.45;;;;;;;;;;4935749;29;20204;-64
2023/10/31 04:32:26;;;;;;;1.20;1.10;;;;;;;;;;4935127;29;20275;-65
2023/10/31 04:34:54;;;;;;;4.00;1.00;;;;;;;;;;4934687;29;21199;-65
2023/10/31 04:37:22;;;;;;;3.55;0.90;;;;;;;;;;4934649;29;20623;-64
2023/10/31 04:39:52;;;;;;;4.22;0.90;;;;;;;;;;4934417;29;20263;-64
2023/10/31 04:42:22;;;;;;;4.38;0.90;;;;;;;;;;4935268;29;20209;-65
2023/10/31 04:44:50;;;;;;;4.07;1.15;;;;;;;;;;4935274;29;20228;-65
2023/10/31 04:47:18;;;;;;;4.75;1.20;;;;;;;;;;4935041;29;20221;-65
2023/10/31 04:49:47;;;;;;;1.45;0.90;;;;;;;;;;4934862;29;20211;-64
2023/10/31 04:52:17;;;;;;;3.13;0.80;;;;;;;;;;4934311;29;20223;-65
2023/10/31 04:54:46;;;;;;;1.70;0.80;;;;;;;;;;4935241;29;20212;-64
2023/10/31 04:57:14;;;;;;;4.22;0.75;;;;;;;;;;4925717;29;20215;-64
2023/10/31 04:59:43;;;;;;;0.90;0.90;;;;;;;;;;4933702;29;20212;-64
2023/10/31 05:02:11;;;;;;;1.17;0.80;;;;;;;;;;4933810;29;20223;-64
2023/10/31 05:04:40;;;;;;;4.65;1.02;;;;;;;;;;4933234;29;20876;-65
2023/10/31 05:07:08;;;;;;;2.55;1.00;;;;;;;;;;4934310;29;20283;-65
2023/10/31 05:09:37;;;;;;;1.88;0.93;;;;;;;;;;4934700;29;20210;-66
2023/10/31 05:12:05;;;;;;;3.90;1.20;;;;;;;;;;4935024;29;20751;-64
2023/10/31 05:14:33;;;;;;;1.45;0.90;;;;;;;;;;4935461;29;20204;-64
2023/10/31 05:17:03;;;;;;;1.92;0.90;;;;;;;;;;4934003;29;20211;-65
2023/10/31 05:19:31;;;;;;;2.17;1.38;;;;;;;;;;4935174;29;20213;-64
2023/10/31 05:21:59;;;;;;;2.50;1.13;;;;;;;;;;4936895;29;20228;-65
2023/10/31 05:24:27;;;;;;;3.60;1.00;;;;;;;;;;4938106;29;20209;-65
2023/10/31 05:26:56;;;;;;;1.73;0.90;;;;;;;;;;4938941;29;21203;-65
2023/10/31 05:29:24;;;;;;;1.70;0.95;;;;;;;;;;4938413;29;20213;-64
2023/10/31 05:31:52;;;;;;;1.15;0.95;;;;;;;;;;4921708;29;20212;-65
2023/10/31 05:34:22;;;;;;;2.35;1.02;;;;;;;;;;4937597;29;20208;-65
2023/10/31 05:36:50;;;;;;;1.35;1.05;;;;;;;;;;4938220;29;20219;-65
2023/10/31 05:39:18;;;;;;;6.00;0.85;;;;;;;;;;4938020;29;20593;-65
2023/10/31 05:41:46;;;;;;;2.45;1.10;;;;;;;;;;4936668;29;20594;-65
2023/10/31 05:44:15;;;;;;;2.65;1.23;;;;;;;;;;4937681;29;20221;-65
2023/10/31 05:46:43;;;;;;;2.13;1.30;;;;;;;;;;4924093;29;20209;-65
2023/10/31 05:49:11;;;;;;;2.10;1.10;;;;;;;;;;4918614;29;20724;-65
2023/10/31 05:51:41;;;;;;;2.20;0.98;;;;;;;;;;4937865;29;20209;-65
2023/10/31 05:54:09;;;;;;;0.90;0.80;;;;;;;;;;4937429;29;20811;-65
2023/10/31 05:56:37;;;;;;;1.05;0.95;;;;;;;;;;4937999;29;20209;-65
2023/10/31 05:59:06;;;;;;;1.85;1.02;;;;;;;;;;4938060;29;20257;-65
2023/10/31 06:01:34;;;;;;;1.05;0.98;;;;;;;;;;4937101;29;20688;-65
2023/10/31 06:04:03;;;;;;;2.88;0.90;;;;;;;;;;4936658;29;20227;-65
2023/10/31 06:06:31;;;;;;;0.90;0.77;;;;;;;;;;4928287;29;20204;-65
2023/10/31 06:09:01;;;;;;;4.25;1.00;;;;;;;;;;4937495;29;20222;-65
2023/10/31 06:11:29;;;;;;;1.83;1.35;;;;;;;;;;4943820;29;20208;-65
2023/10/31 06:13:57;;;;;;;1.85;1.20;;;;;;;;;;4949916;29;20668;-65
2023/10/31 06:16:25;;;;;;;4.23;1.00;;;;;;;;;;4936810;29;20212;-64
2023/10/31 06:18:54;;;;;;;1.20;1.08;;;;;;;;;;4941220;29;20987;-65
2023/10/31 06:21:22;;;;;;;1.65;1.00;;;;;;;;;;4937947;29;20688;-65
2023/10/31 06:23:50;;;;;;;2.17;1.40;;;;;;;;;;4937467;29;20208;-65
2023/10/31 06:26:20;;;;;;;2.58;1.10;;;;;;;;;;4937002;29;20271;-65
2023/10/31 06:28:48;;;;;;;2.35;1.30;;;;;;;;;;4938587;29;20652;-64
2023/10/31 06:31:17;;;;;;;7.20;1.10;;;;;;;;;;4951059;28;20204;-65
2023/10/31 06:33:45;;;;;;;1.73;1.30;;;;;;;;;;4956599;29;20212;-65
2023/10/31 06:36:14;;;;;;;2.47;1.00;;;;;;;;;;4957335;29;20629;-65
2023/10/31 06:38:43;;;;;;;1.00;0.90;;;;;;;;;;4956542;29;20243;-64
2023/10/31 06:41:13;;;;;;;3.75;1.30;;;;;;;;;;4937361;28;20221;-65
2023/10/31 06:43:42;;;;;;;3.38;1.40;;;;;;;;;;4937057;29;20220;-65
2023/10/31 06:46:11;;;;;;;1.23;1.15;;;;;;;;;;4931248;29;20209;-63
2023/10/31 06:48:39;;;;;;;1.65;1.42;;;;;;;;;;4918481;29;20675;-63
2023/10/31 06:51:07;;;;;;;1.58;1.00;;;;;;;;;;4934232;29;20207;-64
2023/10/31 06:53:36;;;;;;;1.30;1.10;;;;;;;;;;4918716;29;20257;-63
2023/10/31 06:56:04;;;;;;;1.60;1.10;;;;;;;;;;4934208;29;20205;-65
2023/10/31 06:58:33;;;;;;;4.60;1.30;;;;;;;;;;4937193;29;20219;-64
2023/10/31 07:01:03;;;;;;;2.17;1.02;;;;;;;;;;4935626;29;20243;-65
2023/10/31 07:03:32;;;;;;;3.33;1.27;;;;;;;;;;4927923;29;20255;-65
2023/10/31 07:06:00;;;;;;;1.45;1.08;;;;;;;;;;4936863;29;20267;-64
2023/10/31 07:08:29;;;;;;;3.15;1.30;;;;;;;;;;4937619;29;20209;-65
2023/10/31 07:10:58;;;;;;;5.68;1.20;;;;;;;;;;4918571;29;20213;-64
2023/10/31 07:13:26;;;;;;;10.25;1.80;;;;;;;;;;4929593;29;20211;-66
2023/10/31 07:15:54;;;;;;;2.58;1.38;;;;;;;;;;4933435;29;20215;-66
2023/10/31 07:18:24;;;;;;;5.60;1.35;;;;;;;;;;4929792;29;20209;-67
2023/10/31 07:20:52;;;;;;;3.50;1.23;;;;;;;;;;4938323;29;20605;-66
2023/10/31 07:23:20;;;;;;;3.22;1.50;;;;;;;;;;4939684;29;20213;-66
2023/10/31 07:25:48;;;;;;;3.13;1.65;;;;;;;;;;4938213;29;20205;-66
2023/10/31 07:28:18;;;;;;;1.30;1.20;;;;;;;;;;4938135;29;20216;-65
2023/10/31 07:30:46;;;;;;;4.93;1.50;;;;;;;;;;4937181;29;20679;-67
2023/10/31 07:33:15;;;;;;;2.53;1.27;;;;;;;;;;4926507;29;21164;-64
2023/10/31 07:35:44;;;;;;;5.13;2.17;;;;;;;;;;4918662;29;20621;-64
2023/10/31 07:38:12;;;;;;;2.30;1.20;;;;;;;;;;4918717;29;20247;-64
2023/10/31 07:40:41;;;;;;;2.35;1.20;;;;;;;;;;4936832;29;20263;-65
2023/10/31 07:43:09;;;;;;;8.43;1.40;;;;;;;;;;4943121;28;20223;-65
2023/10/31 07:45:37;;;;;;;3.67;1.40;;;;;;;;;;4938026;29;20208;-65
2023/10/31 07:48:05;;;;;;;5.25;1.80;;;;;;;;;;4934417;29;20632;-65
2023/10/31 07:50:34;;;;;;;3.70;1.83;;;;;;;;;;4937485;29;20554;-65
2023/10/31 07:53:03;;;;;;;4.27;1.60;;;;;;;;;;4936819;29;20201;-65
2023/10/31 07:55:31;;;;;;;3.70;1.52;;;;;;;;;;4936219;29;20629;-65
2023/10/31 07:57:59;;;;;;;4.20;1.48;;;;;;;;;;4928040;29;20219;-64
2023/10/31 08:00:28;;;;;;;2.85;1.77;;;;;;;;;;4923190;29;20212;-64
2023/10/31 08:02:56;;;;;;;8.68;3.05;;;;;;;;;;4936879;29;20239;-65
2023/10/31 08:05:24;;;;;;;7.85;1.50;;;;;;;;;;4937909;29;20215;-64
2023/10/31 08:07:52;;;;;;;8.95;1.95;;;;;;;;;;4937641;29;20210;-65
2023/10/31 08:10:22;;;;;;;3.15;1.58;;;;;;;;;;4936731;29;20205;-65
2023/10/31 08:12:50;;;;;;;6.32;1.85;;;;;;;;;;4937236;29;20201;-65
2023/10/31 08:15:18;;;;;;;3.63;1.55;;;;;;;;;;4938993;29;20219;-66
2023/10/31 08:17:46;;;;;;;3.58;1.50;;;;;;;;;;4938295;29;20621;-65
2023/10/31 08:20:15;;;;;;;5.38;1.42;;;;;;;;;;4936844;29;20220;-65
2023/10/31 08:22:43;;;;;;;1.60;1.10;;;;;;;;;;4936844;29;20221;-65
2023/10/31 08:25:12;;;;;;;6.80;1.70;;;;;;;;;;4937589;29;20619;-65
2023/10/31 08:27:41;;;;;;;7.30;2.42;;;;;;;;;;4937139;29;20207;-65
2023/10/31 08:30:10;;;;;;;4.40;1.70;;;;;;;;;;4936550;29;20205;-65
2023/10/31 08:32:38;;;;;;;5.80;1.80;;;;;;;;;;4937309;29;20598;-64
2023/10/31 08:35:07;;;;;;;6.10;3.87;;;;;;;;;;4941238;29;20205;-65
2023/10/31 08:37:35;;;;;;;4.25;1.40;;;;;;;;;;4936631;29;20697;-64
2023/10/31 08:40:04;;;;;;;5.80;1.83;;;;;;;;;;4935495;29;20201;-64
2023/10/31 08:42:32;;;;;;;4.93;1.70;;;;;;;;;;4935723;29;20639;-63
2023/10/31 08:45:02;;;;;;;3.43;1.23;;;;;;;;;;4923615;29;20665;-63
2023/10/31 08:47:30;;;;;;;4.00;1.67;;;;;;;;;;4924287;29;20644;-64
2023/10/31 08:49:58;;;;;;;12.13;1.73;;;;;;;;;;4936411;29;20595;-64
2023/10/31 08:52:27;;;;;;;5.00;1.70;;;;;;;;;;4936999;29;20740;-64
2023/10/31 08:54:55;;;;;;;6.43;1.40;;;;;;;;;;4935002;29;21262;-64
2023/10/31 08:57:23;;;;;;;4.73;1.37;;;;;;;;;;4935534;29;21218;-63
2023/10/31 08:59:51;;;;;;;3.70;1.63;;;;;;;;;;4936294;29;20623;-63
2023/10/31 09:02:21;;;;;;;4.73;1.57;;;;;;;;;;4933784;29;20676;-64
2023/10/31 09:04:49;;;;;;;2.43;1.40;;;;;;;;;;4935115;29;21172;-64
2023/10/31 09:07:18;;;;;;;3.33;1.60;;;;;;;;;;4937027;29;20597;-65
2023/10/31 09:09:46;;;;;;;5.80;2.87;;;;;;;;;;4937559;29;20705;-64
2023/10/31 09:12:14;;;;;;;8.20;1.90;;;;;;;;;;4936007;29;21174;-64
2023/10/31 09:14:42;;;;;;;7.10;1.73;;;;;;;;;;4936205;29;20678;-64
2023/10/31 09:17:11;;;;;;;3.47;1.33;;;;;;;;;;4939912;29;20995;-64
2023/10/31 09:19:40;;;;;;;2.27;1.13;;;;;;;;;;4936148;29;20980;-64
2023/10/31 09:22:08;;;;;;;2.90;1.50;;;;;;;;;;4933657;29;20663;-65
2023/10/31 09:24:37;;;;;;;6.40;1.80;;;;;;;;;;4936090;29;20638;-65
2023/10/31 09:27:05;;;;;;;6.65;2.08;;;;;;;;;;4936195;29;20691;-65
2023/10/31 09:29:34;;;;;;;4.20;1.80;;;;;;;;;;4934737;29;20197;-65
2023/10/31 09:32:02;;;;;;;5.93;2.13;;;;;;;;;;4936214;29;20599;-64
2023/10/31 09:34:30;;;;;;;3.70;1.77;;;;;;;;;;4937911;29;20719;-64
2023/10/31 09:36:59;;;;;;;6.47;1.97;;;;;;;;;;4935095;29;20624;-65
2023/10/31 09:39:28;;;;;;;6.87;1.70;;;;;;;;;;4932784;29;20617;-64
2023/10/31 09:41:57;;;;;;;6.47;2.10;;;;;;;;;;4935105;29;20654;-64
2023/10/31 09:44:25;;;;;;;5.30;2.37;;;;;;;;;;4933790;29;20777;-66
2023/10/31 09:46:54;;;;;;;2.27;1.30;;;;;;;;;;4941327;29;20702;-68
2023/10/31 09:49:22;;;;;;;7.60;1.97;;;;;;;;;;4939259;29;21018;-66
2023/10/31 09:51:50;;;;;;;3.07;1.60;;;;;;;;;;4937763;29;20692;-68
2023/10/31 09:54:20;;;;;;;4.57;1.80;;;;;;;;;;4936192;29;20696;-69
2023/10/31 09:56:48;;;;;;;7.53;1.60;;;;;;;;;;4933087;29;20635;-69
2023/10/31 09:59:17;;;;;;;8.30;2.20;;;;;;;;;;4932680;29;20628;-68
2023/10/31 10:01:45;;;;;;;7.30;1.87;;;;;;;;;;4931963;29;20647;-68
2023/10/31 10:04:13;;;;;;;4.70;1.80;;;;;;;;;;4933484;29;20669;-67
2023/10/31 10:06:42;;;;;;;5.20;1.70;;;;;;;;;;4941346;29;20670;-67
2023/10/31 10:09:10;;;;;;;6.90;1.90;;;;;;;;;;4938239;29;20606;-67
2023/10/31 10:11:40;;;;;;;5.57;1.77;;;;;;;;;;4936703;29;20621;-67
2023/10/31 10:14:10;;;;;;;5.33;1.87;;;;;;;;;;4936464;29;21159;-66
2023/10/31 10:16:38;;;;;;;6.73;2.60;;;;;;;;;;4930232;29;20632;-69
2023/10/31 10:19:17;;;;;;;4.47;1.93;;;;;;;;;;4936215;29;20715;-64
2023/10/31 10:21:48;;;;;;;5.70;2.10;;;;;;;;;;4925005;29;20601;-69
2023/10/31 10:24:16;;;;;;;7.30;2.40;;;;;;;;;;4929568;29;20670;-67
2023/10/31 10:26:46;;;;;;;6.47;2.60;;;;;;;;;;4937678;29;20629;-67
2023/10/31 10:29:14;;;;;;;30.83;16.83;;;;;;;;;;4940916;29;20621;-67
2023/10/31 10:31:43;;;;;;;2.87;1.57;;;;;;;;;;4941151;29;20748;-67
2023/10/31 10:34:12;;;;;;;4.50;2.07;;;;;;;;;;4941412;29;20671;-67
2023/10/31 10:36:40;;;;;;;4.30;2.10;;;;;;;;;;4946817;29;21040;-67
2023/10/31 10:39:09;;;;;;;6.63;2.73;;;;;;;;;;4963036;29;21319;-68
2023/10/31 10:41:38;;;;;;;6.10;1.80;;;;;;;;;;4958705;29;20582;-65
2023/10/31 10:44:09;;;;;;;4.23;1.60;;;;;;;;;;4966064;28;20805;-67
2023/10/31 10:46:37;;;;;;;3.93;1.27;;;;;;;;;;4963738;28;20632;-67
2023/10/31 10:49:07;;;;;;;3.60;1.83;;;;;;;;;;4940902;29;20632;-67
2023/10/31 10:51:43;;;;;;;3.73;1.27;;;;;;;;;;4950709;29;20652;-68
2023/10/31 10:54:16;;;;;;;7.17;1.57;;;;;;;;;;4951281;29;20674;-68
2023/10/31 10:56:48;;;;;;;4.70;2.00;;;;;;;;;;4937226;29;20609;-70
2023/10/31 10:59:21;;;;;;;7.43;1.50;;;;;;;;;;4936062;29;20612;-69
2023/10/31 11:01:50;;;;;;;2.03;1.43;;;;;;;;;;4935598;29;20641;-68
2023/10/31 11:04:19;;;;;;;5.03;1.50;;;;;;;;;;4915347;29;21256;-68
2023/10/31 11:06:47;;;;;;;1.93;1.27;;;;;;;;;;4952526;29;20634;-69
2023/10/31 11:09:15;;;;;;;2.50;1.50;;;;;;;;;;4949112;29;20643;-68
2023/10/31 11:11:48;;;;;;;2.93;1.57;;;;;;;;;;4935371;29;20625;-68
2023/10/31 11:14:18;;;;;;;6.20;1.43;;;;;;;;;;4938617;29;20968;-68
2023/10/31 11:16:49;;;;;;;5.50;1.60;;;;;;;;;;4942722;29;20708;-68
2023/10/31 11:19:18;;;;;;;1.63;1.43;;;;;;;;;;4942003;29;20715;-69
2023/10/31 11:21:55;;;;;;;1.63;1.53;;;;;;;;;;4941604;29;20731;-68
2023/10/31 11:24:24;;;;;;;4.53;1.60;;;;;;;;;;4935814;29;20611;-68
2023/10/31 11:26:52;;;;;;;1.70;1.53;;;;;;;;;;4936625;29;20609;-67
2023/10/31 11:29:22;;;;;;;3.60;1.40;;;;;;;;;;4935934;29;20637;-66
2023/10/31 11:31:50;;;;;;;1.63;1.40;;;;;;;;;;4934970;29;20729;-67
2023/10/31 11:34:19;;;;;;;3.60;1.57;;;;;;;;;;4920846;29;20631;-67
2023/10/31 11:36:47;;;;;;;1.90;1.77;;;;;;;;;;4937634;29;21058;-68
2023/10/31 11:39:16;;;;;;;3.87;1.73;;;;;;;;;;4890588;29;20619;-69
2023/10/31 11:41:50;;;;;;;2.63;1.60;;;;;;;;;;4880336;29;20633;-68
2023/10/31 11:44:18;;;;;;;1.83;1.73;;;;;;;;;;4890764;29;21043;-69
2023/10/31 11:46:51;;;;;;;1.80;1.70;;;;;;;;;;4886142;29;20626;-68
2023/10/31 11:49:19;;;;;;;2.07;1.87;;;;;;;;;;4895515;29;20623;-70
2023/10/31 11:51:48;;;;;;;5.10;2.40;;;;;;;;;;4898209;29;20976;-70
2023/10/31 11:54:17;;;;;;;2.20;1.80;;;;;;;;;;4898705;29;20637;-68
2023/10/31 11:56:52;;;;;;;4.93;2.13;;;;;;;;;;4899465;29;20626;-68
2023/10/31 11:59:20;;;;;;;2.50;2.40;;;;;;;;;;4896095;29;21015;-68
2023/10/31 12:01:50;;;;;;;2.27;2.10;;;;;;;;;;4894433;29;20623;-66
2023/10/31 12:04:24;;;;;;;2.23;2.00;;;;;;;;;;4896246;29;20964;-68
2023/10/31 12:07:00;;;;;;;2.07;1.97;;;;;;;;;;4901687;29;20630;-68
2023/10/31 12:09:28;;;;;;;4.03;2.67;;;;;;;;;;4908905;29;20608;-69
2023/10/31 12:11:56;;;;;;;2.40;2.20;;;;;;;;;;4902934;29;20637;-68
2023/10/31 12:14:24;;;;;;;2.63;2.00;;;;;;;;;;4905719;29;20604;-68
2023/10/31 12:16:55;;;;;;;1.60;1.50;;;;;;;;;;4917016;29;20622;-68
2023/10/31 12:19:23;;;;;;;3.60;1.90;;;;;;;;;;4898191;29;20568;-69
2023/10/31 12:21:51;;;;;;;1.60;1.50;;;;;;;;;;4898058;29;20622;-69
2023/10/31 12:24:20;;;;;;;4.23;1.90;;;;;;;;;;4896608;29;20651;-69
2023/10/31 12:26:48;;;;;;;3.07;1.70;;;;;;;;;;4901615;29;20633;-68
2023/10/31 12:29:17;;;;;;;2.73;1.43;;;;;;;;;;4912156;29;20651;-67
2023/10/31 12:31:46;;;;;;;3.65;1.52;;;;;;;;;;4904499;29;20761;-68
2023/10/31 12:34:18;;;;;;;1.80;1.70;;;;;;;;;;4900844;29;20202;-69
2023/10/31 12:36:47;;;;;;;2.00;1.87;;;;;;;;;;4902029;29;20630;-69
2023/10/31 12:39:16;;;;;;;5.23;2.40;;;;;;;;;;4904432;29;20630;-69
2023/10/31 12:41:45;;;;;;;2.10;1.90;;;;;;;;;;4899795;29;20635;-68
2023/10/31 12:44:14;;;;;;;1.80;1.70;;;;;;;;;;4900669;29;21264;-68
2023/10/31 12:46:43;;;;;;;6.60;2.03;;;;;;;;;;4903080;29;20626;-69
2023/10/31 12:49:18;;;;;;;2.00;1.87;;;;;;;;;;4904013;29;20638;-67
2023/10/31 12:52:00;;;;;;;2.10;1.90;;;;;;;;;;4900095;29;21193;-67
2023/10/31 12:54:32;;;;;;;2.20;1.90;;;;;;;;;;4903846;29;20593;-67
2023/10/31 12:57:01;;;;;;;2.87;1.60;;;;;;;;;;4906655;29;20689;-66
2023/10/31 12:59:29;;;;;;;1.40;1.30;;;;;;;;;;4903664;29;20640;-68
2023/10/31 13:01:58;;;;;;;2.00;1.50;;;;;;;;;;4907219;29;20618;-67
2023/10/31 13:04:28;;;;;;;5.60;1.47;;;;;;;;;;4897522;29;21243;-68
2023/10/31 13:06:56;;;;;;;2.60;2.03;;;;;;;;;;4896448;29;20634;-68
2023/10/31 13:09:25;;;;;;;1.83;1.20;;;;;;;;;;4897208;29;20734;-68
2023/10/31 13:11:53;;;;;;;1.47;1.10;;;;;;;;;;4898136;29;20717;-68
2023/10/31 13:14:21;;;;;;;1.40;1.30;;;;;;;;;;4899234;29;20623;-68
2023/10/31 13:16:50;;;;;;;2.67;1.10;;;;;;;;;;4896700;29;21359;-68
2023/10/31 13:19:18;;;;;;;1.67;1.10;;;;;;;;;;4895609;29;20619;-69
2023/10/31 13:21:47;;;;;;;3.73;1.93;;;;;;;;;;4893222;29;21051;-69
2023/10/31 13:24:16;;;;;;;9.40;2.30;;;;;;;;;;4891071;29;20674;-69
2023/10/31 13:26:44;;;;;;;2.10;1.10;;;;;;;;;;4891959;29;20629;-69
2023/10/31 13:29:13;;;;;;;1.70;1.27;;;;;;;;;;4895254;29;20634;-69
2023/10/31 13:31:41;;;;;;;1.80;1.30;;;;;;;;;;4911674;29;20658;-67
2023/10/31 13:34:10;;;;;;;6.10;1.73;;;;;;;;;;4911595;29;20678;-68
2023/10/31 13:36:38;;;;;;;3.07;2.60;;;;;;;;;;4901500;29;20638;-68
2023/10/31 13:39:08;;;;;;;5.30;4.80;;;;;;;;;;4918264;29;21017;-67
2023/10/31 13:41:36;;;;;;;4.30;2.27;;;;;;;;;;4934584;29;20642;-67
2023/10/31 13:44:04;;;;;;;1.67;1.07;;;;;;;;;;4934785;29;20680;-69
2023/10/31 13:46:32;;;;;;;1.40;1.27;;;;;;;;;;4929412;29;21284;-66
2023/10/31 13:49:00;;;;;;;2.77;1.07;;;;;;;;;;4926091;29;20616;-66
2023/10/31 13:51:28;;;;;;;2.10;1.03;;;;;;;;;;4931965;29;20656;-67
2023/10/31 13:53:57;;;;;;;1.40;1.20;;;;;;;;;;4953353;29;20718;-67
2023/10/31 13:56:26;;;;;;;2.83;1.20;;;;;;;;;;4945664;29;20691;-68
2023/10/31 13:58:54;;;;;;;2.27;1.20;;;;;;;;;;4941956;29;20679;-67
2023/10/31 14:01:24;;;;;;;1.17;0.87;;;;;;;;;;4945625;29;20971;-68
2023/10/31 14:03:52;;;;;;;2.67;1.40;;;;;;;;;;4951948;29;20651;-68
2023/10/31 14:06:21;;;;;;;2.33;1.27;;;;;;;;;;4948384;29;20684;-72
2023/10/31 14:08:49;;;;;;;1.27;1.17;;;;;;;;;;4933546;29;20621;-69
2023/10/31 14:11:17;;;;;;;1.83;1.63;;;;;;;;;;4934794;29;21066;-69
2023/10/31 14:13:46;;;;;;;3.67;1.30;;;;;;;;;;4936586;29;20624;-69
2023/10/31 14:16:15;;;;;;;1.70;1.53;;;;;;;;;;4933341;29;20636;-69
2023/10/31 14:18:43;;;;;;;1.57;1.47;;;;;;;;;;4931556;29;21457;-69
2023/10/31 14:21:11;;;;;;;5.20;1.53;;;;;;;;;;4928402;29;20687;-69
2023/10/31 14:23:39;;;;;;;3.10;2.57;;;;;;;;;;4934868;29;20676;-69
2023/10/31 14:26:07;;;;;;;2.63;2.43;;;;;;;;;;4929981;29;20675;-69
2023/10/31 14:28:36;;;;;;;2.00;1.90;;;;;;;;;;4921889;29;20642;-69
2023/10/31 14:31:05;;;;;;;11.07;10.30;;;;;;;;;;4921340;29;20982;-69
2023/10/31 14:33:34;;;;;;;8.27;7.77;;;;;;;;;;4928257;29;20630;-69
2023/10/31 14:36:02;;;;;;;11.80;11.00;;;;;;;;;;4936069;29;20591;-68
2023/10/31 14:38:30;;;;;;;3.40;3.20;;;;;;;;;;4934822;29;20664;-69
2023/10/31 14:40:58;;;;;;;5.80;5.40;;;;;;;;;;4934935;29;20628;-69
2023/10/31 14:43:26;;;;;;;6.07;5.47;;;;;;;;;;4919375;29;21251;-69
2023/10/31 14:45:55;;;;;;;1.90;1.80;;;;;;;;;;4915950;29;20669;-69
2023/10/31 14:48:24;;;;;;;7.33;6.93;;;;;;;;;;4917305;29;20671;-70
2023/10/31 14:50:52;;;;;;;8.00;7.50;;;;;;;;;;4918146;29;20975;-70
2023/10/31 14:53:21;;;;;;;7.23;3.00;;;;;;;;;;4917099;29;20613;-68